sensor_id;sensor_type;location;lat;lon;timestamp;pressure;altitude;pressure_sealevel;temperature;humidity
63700;BME280;49845;47.130;142.766;2023-05-20T00:00:55;100787.25;;;9.05;83.80
63700;BME280;49845;47.130;142.766;2023-05-20T00:03:26;100789.00;;;9.19;83.34
63700;BME280;49845;47.130;142.766;2023-05-20T00:05:57;100792.44;;;9.18;82.42
63700;BME280;49845;47.130;142.766;2023-05-20T00:08:28;100795.91;;;9.31;82.43
63700;BME280;49845;47.130;142.766;2023-05-20T00:10:58;100802.00;;;9.31;81.73
63700;BME280;49845;47.130;142.766;2023-05-20T00:13:31;100802.81;;;9.48;82.27
63700;BME280;49845;47.130;142.766;2023-05-20T00:16:04;100801.84;;;9.72;80.13
63700;BME280;49845;47.130;142.766;2023-05-20T00:18:34;100775.72;;;9.76;79.05
63700;BME280;49845;47.130;142.766;2023-05-20T00:21:05;100792.09;;;10.07;79.51
63700;BME280;49845;47.130;142.766;2023-05-20T00:23:39;100796.25;;;10.43;77.86
63700;BME280;49845;47.130;142.766;2023-05-20T00:26:12;100783.97;;;10.53;77.42
63700;BME280;49845;47.130;142.766;2023-05-20T00:28:45;100786.25;;;10.96;76.48
63700;BME280;49845;47.130;142.766;2023-05-20T00:31:15;100780.72;;;11.20;74.98
63700;BME280;49845;47.130;142.766;2023-05-20T00:33:49;100773.47;;;11.47;76.05
63700;BME280;49845;47.130;142.766;2023-05-20T00:36:19;100770.22;;;11.27;73.23
63700;BME280;49845;47.130;142.766;2023-05-20T00:38:53;100769.19;;;11.41;73.72
63700;BME280;49845;47.130;142.766;2023-05-20T00:41:23;100774.22;;;11.58;74.42
63700;BME280;49845;47.130;142.766;2023-05-20T00:43:59;100769.94;;;11.51;72.43
63700;BME280;49845;47.130;142.766;2023-05-20T00:46:29;100764.81;;;11.42;72.09
63700;BME280;49845;47.130;142.766;2023-05-20T00:49:04;100718.03;;;11.14;73.29
63700;BME280;49845;47.130;142.766;2023-05-20T00:51:34;100772.41;;;11.60;73.19
63700;BME280;49845;47.130;142.766;2023-05-20T00:54:07;100771.31;;;11.80;73.20
63700;BME280;49845;47.130;142.766;2023-05-20T00:56:40;100768.84;;;11.68;70.52
63700;BME280;49845;47.130;142.766;2023-05-20T00:59:18;100754.03;;;11.66;73.20
63700;BME280;49845;47.130;142.766;2023-05-20T01:01:49;100760.34;;;12.17;73.41
63700;BME280;49845;47.130;142.766;2023-05-20T01:04:20;100742.81;;;12.22;69.80
63700;BME280;49845;47.130;142.766;2023-05-20T01:06:50;100736.06;;;12.05;69.43
63700;BME280;49845;47.130;142.766;2023-05-20T01:09:23;100760.66;;;11.95;70.61
63700;BME280;49845;47.130;142.766;2023-05-20T01:12:00;100747.97;;;11.63;70.92
63700;BME280;49845;47.130;142.766;2023-05-20T01:14:39;100739.69;;;11.95;71.17
63700;BME280;49845;47.130;142.766;2023-05-20T01:17:26;100740.06;;;12.29;70.32
63700;BME280;49845;47.130;142.766;2023-05-20T01:20:03;100742.47;;;12.43;70.52
63700;BME280;49845;47.130;142.766;2023-05-20T01:22:45;100716.00;;;12.04;69.49
63700;BME280;49845;47.130;142.766;2023-05-20T01:25:16;100715.06;;;12.08;72.25
63700;BME280;49845;47.130;142.766;2023-05-20T01:27:47;100717.69;;;12.08;70.73
63700;BME280;49845;47.130;142.766;2023-05-20T01:30:19;100714.84;;;12.24;72.29
63700;BME280;49845;47.130;142.766;2023-05-20T01:32:53;100733.84;;;12.35;70.63
63700;BME280;49845;47.130;142.766;2023-05-20T01:35:25;100730.09;;;12.51;70.59
63700;BME280;49845;47.130;142.766;2023-05-20T01:38:01;100723.38;;;12.35;70.58
63700;BME280;49845;47.130;142.766;2023-05-20T01:40:33;100726.91;;;12.34;69.68
63700;BME280;49845;47.130;142.766;2023-05-20T01:43:04;100690.72;;;12.55;70.59
63700;BME280;49845;47.130;142.766;2023-05-20T01:45:40;100722.47;;;12.87;68.48
63700;BME280;49845;47.130;142.766;2023-05-20T01:48:11;100706.50;;;13.00;69.64
63700;BME280;49845;47.130;142.766;2023-05-20T01:50:43;100672.69;;;12.84;68.06
63700;BME280;49845;47.130;142.766;2023-05-20T01:53:18;100701.09;;;13.09;68.49
63700;BME280;49845;47.130;142.766;2023-05-20T01:55:49;100688.91;;;13.05;66.83
63700;BME280;49845;47.130;142.766;2023-05-20T01:58:20;100704.94;;;13.36;69.16
63700;BME280;49845;47.130;142.766;2023-05-20T02:00:51;100694.19;;;13.48;66.54
63700;BME280;49845;47.130;142.766;2023-05-20T02:03:22;100689.59;;;13.58;66.45
63700;BME280;49845;47.130;142.766;2023-05-20T02:05:53;100693.19;;;13.93;67.35
63700;BME280;49845;47.130;142.766;2023-05-20T02:08:26;100696.81;;;13.87;65.61
63700;BME280;49845;47.130;142.766;2023-05-20T02:10:59;100676.88;;;13.78;65.94
63700;BME280;49845;47.130;142.766;2023-05-20T02:13:30;100699.41;;;13.89;65.30
63700;BME280;49845;47.130;142.766;2023-05-20T02:16:04;100694.53;;;14.09;65.88
63700;BME280;49845;47.130;142.766;2023-05-20T02:18:38;100699.09;;;14.38;64.91
63700;BME280;49845;47.130;142.766;2023-05-20T02:21:11;100689.59;;;14.33;65.09
63700;BME280;49845;47.130;142.766;2023-05-20T02:23:52;100692.81;;;14.44;63.64
63700;BME280;49845;47.130;142.766;2023-05-20T02:26:28;100673.97;;;14.27;62.71
63700;BME280;49845;47.130;142.766;2023-05-20T02:29:01;100675.94;;;14.18;62.88
63700;BME280;49845;47.130;142.766;2023-05-20T02:31:32;100680.63;;;14.40;65.19
63700;BME280;49845;47.130;142.766;2023-05-20T02:34:04;100655.38;;;14.69;61.78
63700;BME280;49845;47.130;142.766;2023-05-20T02:36:34;100660.47;;;14.75;61.56
63700;BME280;49845;47.130;142.766;2023-05-20T02:39:07;100666.16;;;14.59;62.39
63700;BME280;49845;47.130;142.766;2023-05-20T02:41:43;100670.25;;;14.70;61.92
63700;BME280;49845;47.130;142.766;2023-05-20T02:44:17;100665.25;;;14.93;62.53
63700;BME280;49845;47.130;142.766;2023-05-20T02:46:50;100655.03;;;15.12;60.91
63700;BME280;49845;47.130;142.766;2023-05-20T02:49:21;100632.31;;;15.09;59.70
63700;BME280;49845;47.130;142.766;2023-05-20T02:51:52;100650.97;;;15.31;60.21
63700;BME280;49845;47.130;142.766;2023-05-20T02:54:32;100670.25;;;15.62;61.39
63700;BME280;49845;47.130;142.766;2023-05-20T02:57:03;100663.44;;;16.11;60.87
63700;BME280;49845;47.130;142.766;2023-05-20T02:59:34;100663.16;;;16.20;60.01
63700;BME280;49845;47.130;142.766;2023-05-20T03:02:05;100666.97;;;16.10;58.92
63700;BME280;49845;47.130;142.766;2023-05-20T03:04:40;100660.91;;;15.81;58.55
63700;BME280;49845;47.130;142.766;2023-05-20T03:07:11;100664.44;;;15.80;59.35
63700;BME280;49845;47.130;142.766;2023-05-20T03:09:43;100660.28;;;15.73;60.76
63700;BME280;49845;47.130;142.766;2023-05-20T03:12:14;100672.25;;;15.53;58.80
63700;BME280;49845;47.130;142.766;2023-05-20T03:14:48;100658.25;;;15.51;60.06
63700;BME280;49845;47.130;142.766;2023-05-20T03:17:22;100660.81;;;15.25;59.66
63700;BME280;49845;47.130;142.766;2023-05-20T03:19:53;100648.88;;;15.13;61.08
63700;BME280;49845;47.130;142.766;2023-05-20T03:22:24;100645.16;;;14.91;61.36
63700;BME280;49845;47.130;142.766;2023-05-20T03:24:59;100615.13;;;14.66;61.47
63700;BME280;49845;47.130;142.766;2023-05-20T03:27:32;100641.47;;;14.96;64.07
63700;BME280;49845;47.130;142.766;2023-05-20T03:30:05;100632.13;;;14.86;62.21
63700;BME280;49845;47.130;142.766;2023-05-20T03:32:36;100620.28;;;14.70;62.53
63700;BME280;49845;47.130;142.766;2023-05-20T03:35:10;100620.34;;;14.34;63.51
63700;BME280;49845;47.130;142.766;2023-05-20T03:37:40;100584.06;;;14.14;63.90
63700;BME280;49845;47.130;142.766;2023-05-20T03:40:14;100605.88;;;14.50;63.00
63700;BME280;49845;47.130;142.766;2023-05-20T03:42:47;100609.41;;;14.49;62.49
63700;BME280;49845;47.130;142.766;2023-05-20T03:45:20;100540.91;;;14.22;62.94
63700;BME280;49845;47.130;142.766;2023-05-20T03:47:51;100613.69;;;14.86;62.48
63700;BME280;49845;47.130;142.766;2023-05-20T03:50:22;100629.97;;;15.00;60.81
63700;BME280;49845;47.130;142.766;2023-05-20T03:52:53;100614.97;;;14.73;62.22
63700;BME280;49845;47.130;142.766;2023-05-20T03:55:26;100619.50;;;14.32;63.13
63700;BME280;49845;47.130;142.766;2023-05-20T03:57:56;100621.09;;;14.39;62.78
63700;BME280;49845;47.130;142.766;2023-05-20T04:00:30;100542.19;;;13.73;61.98
63700;BME280;49845;47.130;142.766;2023-05-20T04:03:01;100638.09;;;14.26;62.94
63700;BME280;49845;47.130;142.766;2023-05-20T04:05:32;100602.34;;;14.18;62.76
63700;BME280;49845;47.130;142.766;2023-05-20T04:08:03;100615.59;;;14.48;63.57
63700;BME280;49845;47.130;142.766;2023-05-20T04:10:36;100620.56;;;14.60;62.58
63700;BME280;49845;47.130;142.766;2023-05-20T04:13:07;100630.84;;;14.35;62.42
63700;BME280;49845;47.130;142.766;2023-05-20T04:15:38;100577.53;;;14.29;63.28
63700;BME280;49845;47.130;142.766;2023-05-20T04:18:08;100624.25;;;14.53;62.89
63700;BME280;49845;47.130;142.766;2023-05-20T04:20:42;100615.91;;;14.36;61.33
63700;BME280;49845;47.130;142.766;2023-05-20T04:23:13;100640.31;;;14.41;62.89
63700;BME280;49845;47.130;142.766;2023-05-20T04:25:46;100630.44;;;14.15;62.25
63700;BME280;49845;47.130;142.766;2023-05-20T04:28:18;100639.00;;;13.89;62.73
63700;BME280;49845;47.130;142.766;2023-05-20T04:30:58;100633.75;;;13.50;63.52
63700;BME280;49845;47.130;142.766;2023-05-20T04:33:30;100612.84;;;13.47;64.69
63700;BME280;49845;47.130;142.766;2023-05-20T04:36:01;100626.50;;;13.61;64.17
63700;BME280;49845;47.130;142.766;2023-05-20T04:38:32;100610.75;;;13.61;63.78
63700;BME280;49845;47.130;142.766;2023-05-20T04:41:05;100626.19;;;13.36;63.56
63700;BME280;49845;47.130;142.766;2023-05-20T04:43:36;100627.47;;;13.15;64.03
63700;BME280;49845;47.130;142.766;2023-05-20T04:46:07;100632.84;;;12.65;64.61
63700;BME280;49845;47.130;142.766;2023-05-20T04:48:38;100624.44;;;12.48;66.20
63700;BME280;49845;47.130;142.766;2023-05-20T04:51:09;100613.22;;;12.41;66.70
63700;BME280;49845;47.130;142.766;2023-05-20T04:53:40;100618.53;;;12.38;66.14
63700;BME280;49845;47.130;142.766;2023-05-20T04:56:14;100610.09;;;12.21;66.11
63700;BME280;49845;47.130;142.766;2023-05-20T04:58:47;100624.84;;;12.26;66.21
63700;BME280;49845;47.130;142.766;2023-05-20T05:01:18;100620.59;;;12.18;66.96
63700;BME280;49845;47.130;142.766;2023-05-20T05:03:48;100610.19;;;12.15;66.89
63700;BME280;49845;47.130;142.766;2023-05-20T05:06:19;100604.75;;;12.25;67.74
63700;BME280;49845;47.130;142.766;2023-05-20T05:08:49;100606.34;;;12.36;66.96
63700;BME280;49845;47.130;142.766;2023-05-20T05:11:22;100559.06;;;11.92;66.17
63700;BME280;49845;47.130;142.766;2023-05-20T05:14:14;100615.81;;;11.93;66.92
63700;BME280;49845;47.130;142.766;2023-05-20T05:17:00;100605.63;;;11.72;67.51
63700;BME280;49845;47.130;142.766;2023-05-20T05:19:32;100603.06;;;11.67;67.46
63700;BME280;49845;47.130;142.766;2023-05-20T05:22:04;100597.53;;;11.85;66.85
63700;BME280;49845;47.130;142.766;2023-05-20T05:24:35;100592.25;;;11.90;67.40
63700;BME280;49845;47.130;142.766;2023-05-20T05:27:07;100585.81;;;12.09;67.76
63700;BME280;49845;47.130;142.766;2023-05-20T05:29:38;100592.81;;;12.11;66.24
63700;BME280;49845;47.130;142.766;2023-05-20T05:32:09;100587.06;;;11.85;66.40
63700;BME280;49845;47.130;142.766;2023-05-20T05:34:39;100592.59;;;11.67;67.71
63700;BME280;49845;47.130;142.766;2023-05-20T05:37:10;100590.09;;;11.59;68.25
63700;BME280;49845;47.130;142.766;2023-05-20T05:39:47;100593.88;;;11.40;67.31
63700;BME280;49845;47.130;142.766;2023-05-20T05:42:21;100604.63;;;11.20;67.84
63700;BME280;49845;47.130;142.766;2023-05-20T05:44:51;100609.09;;;11.13;68.73
63700;BME280;49845;47.130;142.766;2023-05-20T05:47:22;100599.28;;;11.28;68.21
63700;BME280;49845;47.130;142.766;2023-05-20T05:49:57;100586.31;;;11.21;68.14
63700;BME280;49845;47.130;142.766;2023-05-20T05:52:29;100591.75;;;11.06;67.86
63700;BME280;49845;47.130;142.766;2023-05-20T05:55:02;100589.25;;;10.97;68.88
63700;BME280;49845;47.130;142.766;2023-05-20T05:57:35;100589.47;;;10.78;69.55
63700;BME280;49845;47.130;142.766;2023-05-20T06:00:06;100604.13;;;10.93;69.59
63700;BME280;49845;47.130;142.766;2023-05-20T06:02:40;100597.97;;;10.96;69.03
63700;BME280;49845;47.130;142.766;2023-05-20T06:05:11;100594.63;;;10.86;69.68
63700;BME280;49845;47.130;142.766;2023-05-20T06:07:41;100597.31;;;10.78;68.93
63700;BME280;49845;47.130;142.766;2023-05-20T06:10:12;100585.94;;;10.83;69.78
63700;BME280;49845;47.130;142.766;2023-05-20T06:12:44;100595.63;;;10.76;70.18
63700;BME280;49845;47.130;142.766;2023-05-20T06:15:18;100598.13;;;10.80;70.38
63700;BME280;49845;47.130;142.766;2023-05-20T06:17:48;100593.81;;;10.78;70.38
63700;BME280;49845;47.130;142.766;2023-05-20T06:20:19;100596.03;;;11.10;70.13
63700;BME280;49845;47.130;142.766;2023-05-20T06:22:57;100599.22;;;11.34;68.43
63700;BME280;49845;47.130;142.766;2023-05-20T06:25:36;100597.41;;;11.39;67.93
63700;BME280;49845;47.130;142.766;2023-05-20T06:28:12;100596.72;;;11.25;68.39
63700;BME280;49845;47.130;142.766;2023-05-20T06:30:42;100600.34;;;11.14;68.75
63700;BME280;49845;47.130;142.766;2023-05-20T06:33:14;100602.31;;;10.98;68.49
63700;BME280;49845;47.130;142.766;2023-05-20T06:36:10;100598.28;;;10.68;69.05
63700;BME280;49845;47.130;142.766;2023-05-20T06:39:24;100590.78;;;10.38;69.33
63700;BME280;49845;47.130;142.766;2023-05-20T06:42:09;100597.03;;;10.18;71.23
63700;BME280;49845;47.130;142.766;2023-05-20T06:44:41;100610.16;;;10.12;72.29
63700;BME280;49845;47.130;142.766;2023-05-20T06:47:16;100604.97;;;10.09;71.67
63700;BME280;49845;47.130;142.766;2023-05-20T06:49:51;100614.69;;;9.91;72.04
63700;BME280;49845;47.130;142.766;2023-05-20T06:52:24;100618.13;;;9.97;71.87
63700;BME280;49845;47.130;142.766;2023-05-20T06:54:55;100604.34;;;9.79;71.76
63700;BME280;49845;47.130;142.766;2023-05-20T06:57:25;100600.94;;;9.71;73.11
63700;BME280;49845;47.130;142.766;2023-05-20T06:59:57;100609.56;;;9.79;73.13
63700;BME280;49845;47.130;142.766;2023-05-20T07:02:33;100606.16;;;9.71;72.85
63700;BME280;49845;47.130;142.766;2023-05-20T07:05:04;100608.75;;;9.71;73.04
63700;BME280;49845;47.130;142.766;2023-05-20T07:07:37;100602.59;;;9.78;72.42
63700;BME280;49845;47.130;142.766;2023-05-20T07:10:08;100606.91;;;9.87;72.34
63700;BME280;49845;47.130;142.766;2023-05-20T07:12:39;100610.44;;;9.81;72.20
63700;BME280;49845;47.130;142.766;2023-05-20T07:15:12;100607.81;;;9.81;72.02
63700;BME280;49845;47.130;142.766;2023-05-20T07:17:43;100600.81;;;9.86;72.39
63700;BME280;49845;47.130;142.766;2023-05-20T07:20:13;100586.19;;;9.62;72.89
63700;BME280;49845;47.130;142.766;2023-05-20T07:22:44;100582.81;;;9.48;73.67
63700;BME280;49845;47.130;142.766;2023-05-20T07:25:16;100588.03;;;9.49;73.49
63700;BME280;49845;47.130;142.766;2023-05-20T07:27:52;100584.56;;;9.47;73.67
63700;BME280;49845;47.130;142.766;2023-05-20T07:30:24;100571.41;;;9.63;73.59
63700;BME280;49845;47.130;142.766;2023-05-20T07:33:01;100574.84;;;9.71;73.65
63700;BME280;49845;47.130;142.766;2023-05-20T07:35:37;100555.75;;;9.63;73.13
63700;BME280;49845;47.130;142.766;2023-05-20T07:38:08;100582.69;;;9.66;72.95
63700;BME280;49845;47.130;142.766;2023-05-20T07:40:41;100587.91;;;9.65;73.15
63700;BME280;49845;47.130;142.766;2023-05-20T07:43:12;100583.56;;;9.67;73.08
63700;BME280;49845;47.130;142.766;2023-05-20T07:45:52;100580.16;;;9.56;73.19
63700;BME280;49845;47.130;142.766;2023-05-20T07:48:25;100584.50;;;9.55;74.03
63700;BME280;49845;47.130;142.766;2023-05-20T07:50:56;100578.44;;;9.55;73.69
63700;BME280;49845;47.130;142.766;2023-05-20T07:53:29;100575.03;;;9.46;73.23
63700;BME280;49845;47.130;142.766;2023-05-20T07:56:01;100583.78;;;9.33;74.33
63700;BME280;49845;47.130;142.766;2023-05-20T07:58:31;100563.00;;;9.24;75.08
63700;BME280;49845;47.130;142.766;2023-05-20T08:01:04;100563.00;;;9.24;74.58
63700;BME280;49845;47.130;142.766;2023-05-20T08:03:39;100574.25;;;9.26;74.56
63700;BME280;49845;47.130;142.766;2023-05-20T08:06:10;100562.13;;;9.22;74.88
63700;BME280;49845;47.130;142.766;2023-05-20T08:08:41;100576.06;;;9.18;75.32
63700;BME280;49845;47.130;142.766;2023-05-20T08:11:14;100569.13;;;9.14;75.34
63700;BME280;49845;47.130;142.766;2023-05-20T08:13:45;100566.56;;;9.04;75.62
63700;BME280;49845;47.130;142.766;2023-05-20T08:16:20;100567.44;;;9.00;75.62
63700;BME280;49845;47.130;142.766;2023-05-20T08:18:53;100576.19;;;8.96;76.36
63700;BME280;49845;47.130;142.766;2023-05-20T08:21:27;100574.38;;;9.03;76.79
63700;BME280;49845;47.130;142.766;2023-05-20T08:23:58;100574.41;;;9.04;76.22
63700;BME280;49845;47.130;142.766;2023-05-20T08:26:29;100568.31;;;9.02;76.26
63700;BME280;49845;47.130;142.766;2023-05-20T08:28:59;100568.34;;;8.93;75.80
63700;BME280;49845;47.130;142.766;2023-05-20T08:31:32;100562.38;;;8.68;76.65
63700;BME280;49845;47.130;142.766;2023-05-20T08:34:03;100558.06;;;8.61;77.35
63700;BME280;49845;47.130;142.766;2023-05-20T08:36:37;100556.28;;;8.77;77.29
63700;BME280;49845;47.130;142.766;2023-05-20T08:39:08;100551.84;;;8.97;76.82
63700;BME280;49845;47.130;142.766;2023-05-20T08:41:38;100550.91;;;9.14;75.99
63700;BME280;49845;47.130;142.766;2023-05-20T08:44:10;100551.72;;;9.17;76.48
63700;BME280;49845;47.130;142.766;2023-05-20T08:46:47;100549.25;;;8.94;75.87
63700;BME280;49845;47.130;142.766;2023-05-20T08:49:19;100557.91;;;8.99;76.62
63700;BME280;49845;47.130;142.766;2023-05-20T08:51:53;100549.25;;;8.94;76.75
63700;BME280;49845;47.130;142.766;2023-05-20T08:54:25;100558.06;;;8.66;76.83
63700;BME280;49845;47.130;142.766;2023-05-20T08:57:01;100561.59;;;8.46;78.20
63700;BME280;49845;47.130;142.766;2023-05-20T08:59:31;100557.25;;;8.34;78.58
63700;BME280;49845;47.130;142.766;2023-05-20T09:02:05;100571.16;;;8.27;79.10
63700;BME280;49845;47.130;142.766;2023-05-20T09:04:36;100572.06;;;8.09;79.44
63700;BME280;49845;47.130;142.766;2023-05-20T09:07:24;100587.69;;;8.00;79.84
63700;BME280;49845;47.130;142.766;2023-05-20T09:10:01;100588.56;;;7.94;80.54
63700;BME280;49845;47.130;142.766;2023-05-20T09:12:31;100565.13;;;7.81;80.82
63700;BME280;49845;47.130;142.766;2023-05-20T09:15:07;100566.00;;;7.73;80.83
63700;BME280;49845;47.130;142.766;2023-05-20T09:17:39;100566.88;;;7.66;81.72
63700;BME280;49845;47.130;142.766;2023-05-20T09:20:10;100556.44;;;7.48;81.89
63700;BME280;49845;47.130;142.766;2023-05-20T09:22:41;100578.13;;;7.48;82.52
63700;BME280;49845;47.130;142.766;2023-05-20T09:25:12;100575.50;;;7.44;82.74
63700;BME280;49845;47.130;142.766;2023-05-20T09:27:49;100572.03;;;7.32;82.78
63700;BME280;49845;47.130;142.766;2023-05-20T09:30:22;100578.97;;;7.40;83.53
63700;BME280;49845;47.130;142.766;2023-05-20T09:32:58;100578.97;;;7.27;83.34
63700;BME280;49845;47.130;142.766;2023-05-20T09:35:29;100568.53;;;7.09;83.74
63700;BME280;49845;47.130;142.766;2023-05-20T09:38:00;100544.16;;;6.76;84.09
63700;BME280;49845;47.130;142.766;2023-05-20T09:40:33;100578.84;;;6.90;84.75
63700;BME280;49845;47.130;142.766;2023-05-20T09:43:06;100577.06;;;6.74;85.34
63700;BME280;49845;47.130;142.766;2023-05-20T09:45:40;100557.91;;;6.54;85.66
63700;BME280;49845;47.130;142.766;2023-05-20T09:48:16;100578.66;;;6.51;86.14
63700;BME280;49845;47.130;142.766;2023-05-20T09:50:47;100585.56;;;6.45;87.11
63700;BME280;49845;47.130;142.766;2023-05-20T09:53:19;100585.50;;;6.33;87.39
63700;BME280;49845;47.130;142.766;2023-05-20T09:55:52;100589.78;;;6.26;87.55
63700;BME280;49845;47.130;142.766;2023-05-20T09:58:26;100585.44;;;6.24;88.03
63700;BME280;49845;47.130;142.766;2023-05-20T10:00:58;100581.09;;;6.23;88.36
63700;BME280;49845;47.130;142.766;2023-05-20T10:03:31;100582.75;;;6.13;88.33
63700;BME280;49845;47.130;142.766;2023-05-20T10:06:30;100581.78;;;5.99;88.63
63700;BME280;49845;47.130;142.766;2023-05-20T10:09:27;100566.00;;;5.70;89.68
63700;BME280;49845;47.130;142.766;2023-05-20T10:12:09;100593.72;;;5.80;89.92
63700;BME280;49845;47.130;142.766;2023-05-20T10:14:54;100585.88;;;5.69;90.11
63700;BME280;49845;47.130;142.766;2023-05-20T10:17:38;100583.28;;;5.71;90.33
63700;BME280;49845;47.130;142.766;2023-05-20T10:20:19;100588.41;;;5.65;90.49
63700;BME280;49845;47.130;142.766;2023-05-20T10:23:05;100575.34;;;5.52;91.22
63700;BME280;49845;47.130;142.766;2023-05-20T10:26:06;100582.25;;;5.52;91.32
63700;BME280;49845;47.130;142.766;2023-05-20T10:28:52;100576.19;;;5.51;91.04
63700;BME280;49845;47.130;142.766;2023-05-20T10:31:30;100581.22;;;5.36;91.25
63700;BME280;49845;47.130;142.766;2023-05-20T10:34:02;100573.34;;;5.25;92.07
63700;BME280;49845;47.130;142.766;2023-05-20T10:36:35;100570.72;;;5.21;92.82
63700;BME280;49845;47.130;142.766;2023-05-20T10:39:14;100591.47;;;5.24;93.03
63700;BME280;49845;47.130;142.766;2023-05-20T10:41:48;100605.25;;;5.19;93.31
63700;BME280;49845;47.130;142.766;2023-05-20T10:44:22;100597.44;;;5.15;93.31
63700;BME280;49845;47.130;142.766;2023-05-20T10:47:02;100608.66;;;5.15;93.44
63700;BME280;49845;47.130;142.766;2023-05-20T10:49:52;100607.66;;;5.06;93.25
63700;BME280;49845;47.130;142.766;2023-05-20T10:52:25;100622.47;;;5.14;93.57
63700;BME280;49845;47.130;142.766;2023-05-20T10:54:56;100619.03;;;5.18;93.07
63700;BME280;49845;47.130;142.766;2023-05-20T10:57:28;100624.13;;;5.09;93.08
63700;BME280;49845;47.130;142.766;2023-05-20T11:00:02;100617.91;;;4.96;93.41
63700;BME280;49845;47.130;142.766;2023-05-20T11:02:38;100625.75;;;5.01;93.68
63700;BME280;49845;47.130;142.766;2023-05-20T11:05:12;100602.94;;;4.69;93.44
63700;BME280;49845;47.130;142.766;2023-05-20T11:07:46;100633.34;;;4.87;94.49
63700;BME280;49845;47.130;142.766;2023-05-20T11:10:21;100625.53;;;4.83;94.69
63700;BME280;49845;47.130;142.766;2023-05-20T11:12:51;100629.00;;;4.85;94.49
63700;BME280;49845;47.130;142.766;2023-05-20T11:15:22;100609.84;;;4.70;94.65
63700;BME280;49845;47.130;142.766;2023-05-20T11:17:56;100623.66;;;4.72;94.91
63700;BME280;49845;47.130;142.766;2023-05-20T11:20:27;100602.81;;;4.60;95.20
63700;BME280;49845;47.130;142.766;2023-05-20T11:23:00;100592.28;;;4.48;95.04
63700;BME280;49845;47.130;142.766;2023-05-20T11:25:32;100587.00;;;4.42;95.98
63700;BME280;49845;47.130;142.766;2023-05-20T11:28:06;100597.50;;;4.49;96.49
63700;BME280;49845;47.130;142.766;2023-05-20T11:30:37;100604.34;;;4.49;96.11
63700;BME280;49845;47.130;142.766;2023-05-20T11:33:12;100598.06;;;4.31;95.88
63700;BME280;49845;47.130;142.766;2023-05-20T11:36:02;100598.94;;;4.30;95.78
63700;BME280;49845;47.130;142.766;2023-05-20T11:39:04;100611.13;;;4.38;95.87
63700;BME280;49845;47.130;142.766;2023-05-20T11:45:14;100611.16;;;4.41;96.46
63700;BME280;49845;47.130;142.766;2023-05-20T11:47:58;100611.19;;;4.44;96.71
63700;BME280;49845;47.130;142.766;2023-05-20T11:50:34;100611.16;;;4.41;96.57
63700;BME280;49845;47.130;142.766;2023-05-20T11:53:10;100619.81;;;4.43;96.76
63700;BME280;49845;47.130;142.766;2023-05-20T11:55:50;100579.72;;;4.13;96.71
63700;BME280;49845;47.130;142.766;2023-05-20T11:58:25;100604.16;;;4.33;96.98
63700;BME280;49845;47.130;142.766;2023-05-20T12:00:56;100597.25;;;4.32;97.35
63700;BME280;49845;47.130;142.766;2023-05-20T12:03:46;100607.63;;;4.36;97.32
63700;BME280;49845;47.130;142.766;2023-05-20T12:06:20;100612.84;;;4.39;97.58
63700;BME280;49845;47.130;142.766;2023-05-20T12:08:51;100613.69;;;4.38;97.46
63700;BME280;49845;47.130;142.766;2023-05-20T12:11:24;100596.25;;;4.23;97.36
63700;BME280;49845;47.130;142.766;2023-05-20T12:13:54;100624.88;;;4.37;98.01
63700;BME280;49845;47.130;142.766;2023-05-20T12:16:25;100620.63;;;4.40;97.95
63700;BME280;49845;47.130;142.766;2023-05-20T12:18:55;100618.00;;;4.39;97.91
63700;BME280;49845;47.130;142.766;2023-05-20T12:21:27;100607.66;;;4.39;98.00
63700;BME280;49845;47.130;142.766;2023-05-20T12:23:59;100607.69;;;4.42;97.85
63700;BME280;49845;47.130;142.766;2023-05-20T12:26:32;100591.22;;;4.32;98.08
63700;BME280;49845;47.130;142.766;2023-05-20T12:29:02;100603.31;;;4.36;97.86
63700;BME280;49845;47.130;142.766;2023-05-20T12:31:33;100595.44;;;4.28;97.93
63700;BME280;49845;47.130;142.766;2023-05-20T12:34:04;100585.22;;;4.35;98.49
63700;BME280;49845;47.130;142.766;2023-05-20T12:36:35;100595.59;;;4.38;98.71
63700;BME280;49845;47.130;142.766;2023-05-20T12:39:06;100583.47;;;4.37;98.91
63700;BME280;49845;47.130;142.766;2023-05-20T12:41:39;100577.41;;;4.33;98.38
63700;BME280;49845;47.130;142.766;2023-05-20T12:44:09;100561.81;;;4.27;98.39
63700;BME280;49845;47.130;142.766;2023-05-20T12:46:42;100568.78;;;4.34;98.55
63700;BME280;49845;47.130;142.766;2023-05-20T12:49:13;100564.56;;;4.41;99.13
63700;BME280;49845;47.130;142.766;2023-05-20T12:51:43;100557.84;;;4.52;98.56
63700;BME280;49845;47.130;142.766;2023-05-20T12:54:16;100561.38;;;4.60;98.11
63700;BME280;49845;47.130;142.766;2023-05-20T12:56:59;100560.56;;;4.63;97.96
63700;BME280;49845;47.130;142.766;2023-05-20T12:59:30;100563.31;;;4.76;97.71
63700;BME280;49845;47.130;142.766;2023-05-20T13:02:01;100565.16;;;4.87;97.32
63700;BME280;49845;47.130;142.766;2023-05-20T13:04:32;100548.81;;;4.89;97.05
63700;BME280;49845;47.130;142.766;2023-05-20T13:07:03;100548.03;;;4.98;96.30
63700;BME280;49845;47.130;142.766;2023-05-20T13:09:36;100541.03;;;4.91;96.04
63700;BME280;49845;47.130;142.766;2023-05-20T13:12:13;100530.53;;;4.79;95.63